createdAt,value
2018-12-08T00:02:09.671Z,34.67
2018-12-08T00:04:37.194Z,39.40
2018-12-08T00:07:04.674Z,29.63
2018-12-08T00:09:32.145Z,36.70
2018-12-08T00:11:59.650Z,34.33
2018-12-08T00:14:27.130Z,38.10
2018-12-08T00:16:54.605Z,26.20
2018-12-08T00:19:22.107Z,26.67
2018-12-08T00:21:50.390Z,25.67
2018-12-08T00:24:17.861Z,24.30
2018-12-08T00:26:45.370Z,22.63
2018-12-08T00:29:12.840Z,23.23
2018-12-08T00:31:44.091Z,23.67
2018-12-08T00:34:11.714Z,21.83
2018-12-08T00:36:39.189Z,20.67
2018-12-08T00:39:06.861Z,18.23
2018-12-08T00:41:34.369Z,20.70
2018-12-08T00:44:01.846Z,19.60
2018-12-08T00:46:29.325Z,18.63
2018-12-08T00:48:56.836Z,20.90
2018-12-08T00:51:24.304Z,22.83
2018-12-08T00:53:51.879Z,23.97
2018-12-08T00:56:19.389Z,18.87
2018-12-08T00:58:46.874Z,14.57
2018-12-08T01:01:14.349Z,19.63
2018-12-08T01:03:41.866Z,21.50
2018-12-08T01:06:09.338Z,19.03
2018-12-08T01:08:36.805Z,13.93
2018-12-08T01:11:04.329Z,16.07
2018-12-08T01:13:31.809Z,15.60
2018-12-08T01:15:59.284Z,14.33
2018-12-08T01:18:26.792Z,17.03
2018-12-08T01:20:54.260Z,14.13
2018-12-08T01:23:21.728Z,15.73
2018-12-08T01:25:49.314Z,12.97
2018-12-08T01:28:16.799Z,14.17
2018-12-08T01:30:44.268Z,12.40
2018-12-08T01:33:11.769Z,13.33
2018-12-08T01:35:39.241Z,11.50
2018-12-08T01:38:06.717Z,10.83
2018-12-08T01:40:34.316Z,10.10
2018-12-08T01:43:01.788Z,10.17
2018-12-08T01:45:29.261Z,8.83
2018-12-08T01:47:56.761Z,13.23
2018-12-08T01:50:24.233Z,11.73
2018-12-08T01:52:51.713Z,12.80
2018-12-08T01:55:19.225Z,12.47
2018-12-08T01:57:46.693Z,13.00
2018-12-08T02:00:14.168Z,10.90
2018-12-08T02:02:41.692Z,11.13
2018-12-08T02:05:09.172Z,10.77
2018-12-08T02:07:36.647Z,12.23
2018-12-08T02:10:05.473Z,10.40
2018-12-08T02:12:32.946Z,8.87
2018-12-08T02:15:00.417Z,14.63
2018-12-08T02:17:27.909Z,10.37
2018-12-08T02:19:55.389Z,9.43
2018-12-08T02:22:22.856Z,8.77
2018-12-08T02:24:55.213Z,10.20
2018-12-08T02:27:22.693Z,12.93
2018-12-08T02:29:50.167Z,8.53
2018-12-08T02:32:17.894Z,7.70
2018-12-08T02:34:45.360Z,7.20
2018-12-08T02:37:12.829Z,8.60
2018-12-08T02:39:40.365Z,9.43
2018-12-08T02:42:07.847Z,10.50
2018-12-08T02:44:35.317Z,7.53
2018-12-08T02:47:02.814Z,8.20
2018-12-08T02:49:30.397Z,6.93
2018-12-08T02:51:58.573Z,7.20
2018-12-08T02:54:26.109Z,6.10
2018-12-08T02:56:53.590Z,6.67
2018-12-08T02:59:21.056Z,7.83
2018-12-08T03:01:48.545Z,6.10
2018-12-08T03:04:16.016Z,7.73
2018-12-08T03:06:43.486Z,6.73
2018-12-08T03:09:10.981Z,5.00
2018-12-08T03:11:38.453Z,5.13
2018-12-08T03:14:05.922Z,6.40
2018-12-08T03:16:33.513Z,6.17
2018-12-08T03:19:00.988Z,4.17
2018-12-08T03:21:28.460Z,4.90
2018-12-08T03:23:55.963Z,4.90
2018-12-08T03:26:23.432Z,2.90
2018-12-08T03:28:50.945Z,4.40
2018-12-08T03:31:18.588Z,2.33
2018-12-08T03:33:46.056Z,1.50
2018-12-08T03:36:13.524Z,2.03
2018-12-08T03:38:41.026Z,2.63
2018-12-08T03:41:08.497Z,1.70
2018-12-08T03:43:35.964Z,1.07
2018-12-08T03:46:03.466Z,2.87
2018-12-08T03:48:30.932Z,2.80
2018-12-08T03:50:58.402Z,0.77
2018-12-08T03:53:25.902Z,0.60
2018-12-08T03:55:53.370Z,4.30
2018-12-08T03:58:20.838Z,1.40
2018-12-08T04:00:48.444Z,2.30
2018-12-08T04:03:15.912Z,1.40
2018-12-08T04:05:43.386Z,1.30
2018-12-08T04:08:10.910Z,1.10
2018-12-08T04:10:38.374Z,1.93
2018-12-08T04:13:05.852Z,3.00
2018-12-08T04:15:33.441Z,2.37
2018-12-08T04:18:00.904Z,2.97
2018-12-08T04:20:28.378Z,4.70
2018-12-08T04:22:56.085Z,4.37
2018-12-08T04:25:23.564Z,5.17
2018-12-08T04:27:51.040Z,5.50
2018-12-08T04:30:18.886Z,6.57
2018-12-08T04:32:46.357Z,8.13
2018-12-08T04:35:13.826Z,8.33
2018-12-08T04:37:41.341Z,5.30
2018-12-08T04:40:08.817Z,4.33
2018-12-08T04:42:36.304Z,6.00
2018-12-08T04:45:04.137Z,2.00
2018-12-08T04:47:31.605Z,3.23
2018-12-08T04:49:59.264Z,4.77
2018-12-08T04:52:26.796Z,5.10
2018-12-08T04:54:54.269Z,6.87
2018-12-08T04:57:21.739Z,4.67
2018-12-08T04:59:49.239Z,9.67
2018-12-08T05:02:16.710Z,10.80
2018-12-08T05:04:44.274Z,15.27
2018-12-08T05:07:11.785Z,10.97
2018-12-08T05:09:39.252Z,5.20
2018-12-08T05:12:06.723Z,8.23
2018-12-08T05:14:34.213Z,7.60
2018-12-08T05:17:01.685Z,9.13
2018-12-08T05:19:29.187Z,10.20
2018-12-08T05:21:56.780Z,8.70
2018-12-08T05:24:24.249Z,7.33
2018-12-08T05:26:51.720Z,6.07
2018-12-08T05:29:19.225Z,9.50
2018-12-08T05:31:46.841Z,6.77
2018-12-08T05:34:14.317Z,10.30
2018-12-08T05:36:41.810Z,13.50
2018-12-08T05:39:09.380Z,11.67
2018-12-08T05:41:36.845Z,8.07
2018-12-08T05:44:04.348Z,15.07
2018-12-08T05:46:31.816Z,7.60
2018-12-08T05:48:59.285Z,7.83
2018-12-08T05:51:26.793Z,12.00
2018-12-08T05:53:54.269Z,12.30
2018-12-08T05:56:21.750Z,17.63
2018-12-08T05:58:49.252Z,12.60
2018-12-08T06:01:16.751Z,15.33
2018-12-08T06:03:44.215Z,17.83
2018-12-08T06:06:11.716Z,17.63
2018-12-08T06:08:39.186Z,14.53
2018-12-08T06:11:06.659Z,15.53
2018-12-08T06:13:34.158Z,23.93
2018-12-08T06:16:01.630Z,15.90
2018-12-08T06:18:29.192Z,12.57
2018-12-08T06:20:56.701Z,17.27
2018-12-08T06:23:24.173Z,13.17
2018-12-08T06:25:51.741Z,14.13
2018-12-08T06:28:19.243Z,16.97
2018-12-08T06:30:46.712Z,18.00
2018-12-08T06:33:14.238Z,14.37
2018-12-08T06:35:41.733Z,16.97
2018-12-08T06:38:09.208Z,23.57
2018-12-08T06:40:36.681Z,19.73
2018-12-08T06:43:04.479Z,18.43
2018-12-08T06:45:31.950Z,16.53
2018-12-08T06:47:59.420Z,19.60
2018-12-08T06:50:26.920Z,12.93
2018-12-08T06:52:54.397Z,16.87
2018-12-08T06:55:21.869Z,19.10
2018-12-08T06:57:49.376Z,21.37
2018-12-08T07:00:16.893Z,18.73
2018-12-08T07:02:44.388Z,21.60
2018-12-08T07:05:11.904Z,16.47
2018-12-08T07:07:39.377Z,13.30
2018-12-08T07:10:06.944Z,16.23
2018-12-08T07:12:34.448Z,19.33
2018-12-08T07:15:01.921Z,19.87
2018-12-08T07:17:29.401Z,14.40
2018-12-08T07:19:56.904Z,17.47
2018-12-08T07:22:24.372Z,14.00
2018-12-08T07:24:51.844Z,22.23
2018-12-08T07:27:19.337Z,22.37
2018-12-08T07:29:46.809Z,20.00
2018-12-08T07:32:14.285Z,16.67
2018-12-08T07:34:41.996Z,14.90
2018-12-08T07:37:09.473Z,15.37
2018-12-08T07:39:36.947Z,16.40
2018-12-08T07:42:04.456Z,13.80
2018-12-08T07:44:31.929Z,22.23
2018-12-08T07:46:59.402Z,22.30
2018-12-08T07:49:26.931Z,20.20
2018-12-08T07:51:54.401Z,21.40
2018-12-08T07:54:21.874Z,20.30
2018-12-08T07:56:49.369Z,20.27
2018-12-08T07:59:16.852Z,21.30
2018-12-08T08:01:44.325Z,18.03
2018-12-08T08:04:11.829Z,17.33
2018-12-08T08:06:39.300Z,18.03
2018-12-08T08:09:06.804Z,18.10
2018-12-08T08:11:34.316Z,19.67
2018-12-08T08:14:01.784Z,20.57
2018-12-08T08:16:29.298Z,14.20
2018-12-08T08:18:56.801Z,15.63
2018-12-08T08:21:24.280Z,16.73
2018-12-08T08:23:51.747Z,14.77
2018-12-08T08:26:19.244Z,14.70
2018-12-08T08:28:46.714Z,19.77
2018-12-08T08:31:14.187Z,12.63
2018-12-08T08:33:41.748Z,17.33
2018-12-08T08:36:09.515Z,14.80
2018-12-08T08:38:36.992Z,14.40
2018-12-08T08:41:04.505Z,16.43
2018-12-08T08:43:31.987Z,15.83
2018-12-08T08:45:59.470Z,17.97
2018-12-08T08:48:26.990Z,13.13
2018-12-08T08:50:54.470Z,15.77
2018-12-08T08:53:21.940Z,15.80
2018-12-08T08:55:49.456Z,17.77
2018-12-08T08:58:16.994Z,15.03
2018-12-08T09:00:44.469Z,11.03
2018-12-08T09:03:11.975Z,15.80
2018-12-08T09:05:39.449Z,12.90
2018-12-08T09:08:06.928Z,16.17
2018-12-08T09:10:34.425Z,17.40
2018-12-08T09:13:01.927Z,13.03
2018-12-08T09:15:29.391Z,9.10
2018-12-08T09:17:56.889Z,9.63
2018-12-08T09:20:24.358Z,9.93
2018-12-08T09:22:51.832Z,12.97
2018-12-08T09:25:19.321Z,14.53
2018-12-08T09:27:46.796Z,11.23
2018-12-08T09:30:14.261Z,14.50
2018-12-08T09:32:41.764Z,11.23
2018-12-08T09:35:09.242Z,13.20
2018-12-08T09:37:36.781Z,7.53
2018-12-08T09:40:06.012Z,14.07
2018-12-08T09:42:33.490Z,13.67
2018-12-08T09:45:00.972Z,18.40
2018-12-08T09:47:28.472Z,11.73
2018-12-08T09:49:55.942Z,8.13
2018-12-08T09:52:23.410Z,13.10
2018-12-08T09:54:50.913Z,12.77
2018-12-08T09:57:18.385Z,13.77
2018-12-08T09:59:45.857Z,14.33
2018-12-08T10:02:13.361Z,11.33
2018-12-08T10:04:40.837Z,9.63
2018-12-08T10:07:08.315Z,10.57
2018-12-08T10:09:35.977Z,15.47
2018-12-08T10:12:03.471Z,9.73
2018-12-08T10:14:30.943Z,9.43
2018-12-08T10:16:58.454Z,10.83
2018-12-08T10:19:25.925Z,8.60
2018-12-08T10:21:53.398Z,7.00
2018-12-08T10:24:20.911Z,12.57
2018-12-08T10:26:48.385Z,12.37
2018-12-08T10:29:15.853Z,6.50
2018-12-08T10:31:43.792Z,12.73
2018-12-08T10:34:11.294Z,11.43
2018-12-08T10:36:38.766Z,8.73
2018-12-08T10:39:07.128Z,10.10
2018-12-08T10:41:34.609Z,13.37
2018-12-08T10:44:02.181Z,12.67
2018-12-08T10:46:29.682Z,8.87
2018-12-08T10:48:57.145Z,8.97
2018-12-08T10:51:24.613Z,9.77
2018-12-08T10:53:52.129Z,9.83
2018-12-08T10:56:19.597Z,7.80
2018-12-08T10:58:47.069Z,8.17
2018-12-08T11:01:18.804Z,6.47
2018-12-08T11:03:47.548Z,8.37
2018-12-08T11:06:16.889Z,5.23
2018-12-08T11:08:44.537Z,11.90
2018-12-08T11:11:12.004Z,8.63
2018-12-08T11:13:39.472Z,11.30
2018-12-08T11:16:06.972Z,8.90
2018-12-08T11:18:34.441Z,8.13
2018-12-08T11:21:01.909Z,10.00
2018-12-08T11:23:29.440Z,11.13
2018-12-08T11:25:56.914Z,7.30
2018-12-08T11:28:24.388Z,9.83
2018-12-08T11:30:51.897Z,9.43
2018-12-08T11:33:19.362Z,8.00
2018-12-08T11:35:46.840Z,10.20
2018-12-08T11:38:14.353Z,10.87
2018-12-08T11:40:41.830Z,10.40
2018-12-08T11:43:09.301Z,6.93
2018-12-08T11:45:36.810Z,9.97
2018-12-08T11:48:04.285Z,10.93
2018-12-08T11:50:31.761Z,7.57
2018-12-08T11:52:59.247Z,9.80
2018-12-08T11:55:30.358Z,6.80
2018-12-08T11:57:56.212Z,7.53
2018-12-08T12:00:23.753Z,11.80
2018-12-08T12:02:51.224Z,6.00
2018-12-08T12:05:19.017Z,10.27
2018-12-08T12:07:46.528Z,7.73
2018-12-08T12:10:13.998Z,8.40
2018-12-08T12:12:41.475Z,9.17
2018-12-08T12:15:09.000Z,7.33
2018-12-08T12:17:36.465Z,6.40
2018-12-08T12:20:06.030Z,10.53
2018-12-08T12:22:33.539Z,10.23
2018-12-08T12:25:01.601Z,6.00
2018-12-08T12:27:29.076Z,8.83
2018-12-08T12:29:56.576Z,7.07
2018-12-08T12:32:24.046Z,6.53
2018-12-08T12:34:51.512Z,8.53
2018-12-08T12:37:19.151Z,8.53
2018-12-08T12:39:46.632Z,9.87
2018-12-08T12:42:14.112Z,10.10
2018-12-08T12:44:41.629Z,12.07
2018-12-08T12:47:09.118Z,11.00
2018-12-08T12:49:36.595Z,11.90
2018-12-08T12:52:04.105Z,7.90
2018-12-08T12:54:31.589Z,10.90
2018-12-08T12:56:59.081Z,11.30
2018-12-08T12:59:26.601Z,13.67
2018-12-08T13:01:54.069Z,11.20
2018-12-08T13:04:21.542Z,9.20
2018-12-08T13:06:49.053Z,11.37
2018-12-08T13:09:16.530Z,10.00
2018-12-08T13:11:45.089Z,7.23
2018-12-08T13:14:13.303Z,9.03
2018-12-08T13:16:41.087Z,8.30
2018-12-08T13:19:08.559Z,11.67
2018-12-08T13:21:36.052Z,8.77
2018-12-08T13:24:03.651Z,11.93
2018-12-08T13:26:31.116Z,9.80
2018-12-08T13:28:58.636Z,12.93
2018-12-08T13:31:26.104Z,11.27
2018-12-08T13:33:53.621Z,10.93
2018-12-08T13:36:21.116Z,8.47
2018-12-08T13:38:48.585Z,10.30
2018-12-08T13:41:16.063Z,8.90
2018-12-08T13:43:47.541Z,9.33
2018-12-08T13:46:15.025Z,10.47
2018-12-08T13:48:42.588Z,8.60
2018-12-08T13:51:10.097Z,10.63
2018-12-08T13:53:37.609Z,9.70
2018-12-08T13:56:05.083Z,14.83
2018-12-08T13:58:32.580Z,11.20
2018-12-08T14:01:00.054Z,9.20
2018-12-08T14:03:27.548Z,9.37
2018-12-08T14:05:55.048Z,9.30
2018-12-08T14:08:22.521Z,10.47
2018-12-08T14:10:49.999Z,12.80
2018-12-08T14:13:17.492Z,15.23
2018-12-08T14:15:44.961Z,14.40
2018-12-08T14:18:12.439Z,10.83
2018-12-08T14:20:39.942Z,12.17
2018-12-08T14:23:07.417Z,18.40
2018-12-08T14:25:34.885Z,17.93
2018-12-08T14:28:02.384Z,13.43
2018-12-08T14:30:29.848Z,18.07
2018-12-08T14:32:57.384Z,15.47
2018-12-08T14:35:25.041Z,16.70
2018-12-08T14:37:52.566Z,15.60
2018-12-08T14:40:20.616Z,14.20
2018-12-08T14:42:48.330Z,11.00
2018-12-08T14:45:15.857Z,9.53
2018-12-08T14:47:43.332Z,12.73
2018-12-08T14:50:10.828Z,13.03
2018-12-08T14:52:38.306Z,9.13
2018-12-08T14:55:05.781Z,12.97
2018-12-08T14:57:33.286Z,13.20
2018-12-08T15:00:00.757Z,12.03
2018-12-08T15:02:28.226Z,13.60
2018-12-08T15:04:55.740Z,17.67
2018-12-08T15:07:23.211Z,8.80
2018-12-08T15:09:50.784Z,12.23
2018-12-08T15:12:18.333Z,13.47
2018-12-08T15:14:45.805Z,8.40
2018-12-08T15:17:13.357Z,10.17
2018-12-08T15:19:40.866Z,9.27
2018-12-08T15:22:09.012Z,11.20
2018-12-08T15:24:36.497Z,10.93
2018-12-08T15:27:04.006Z,9.73
2018-12-08T15:29:31.512Z,9.27
2018-12-08T15:31:58.996Z,10.93
2018-12-08T15:34:26.559Z,12.20
2018-12-08T15:36:54.211Z,13.20
2018-12-08T15:39:21.681Z,15.60
2018-12-08T15:41:49.186Z,10.00
2018-12-08T15:44:16.779Z,10.57
2018-12-08T15:46:44.249Z,10.27
2018-12-08T15:49:11.933Z,14.67
2018-12-08T15:51:39.402Z,25.67
2018-12-08T15:54:06.892Z,23.90
2018-12-08T15:56:34.385Z,14.93
2018-12-08T15:59:01.864Z,16.67
2018-12-08T16:01:29.341Z,16.50
2018-12-08T16:03:56.977Z,26.07
2018-12-08T16:06:24.445Z,22.43
2018-12-08T16:08:51.916Z,19.63
2018-12-08T16:11:19.453Z,27.90
2018-12-08T16:13:46.921Z,17.70
2018-12-08T16:16:14.388Z,16.33
2018-12-08T16:18:41.897Z,18.27
2018-12-08T16:21:09.491Z,17.67
2018-12-08T16:23:36.961Z,16.77
2018-12-08T16:26:04.464Z,24.70
2018-12-08T16:28:31.928Z,14.27
2018-12-08T16:30:59.401Z,15.20
2018-12-08T16:33:26.914Z,25.37
2018-12-08T16:35:54.381Z,18.13
2018-12-08T16:38:21.850Z,12.03
2018-12-08T16:40:49.352Z,15.40
2018-12-08T16:43:16.828Z,19.63
2018-12-08T16:45:44.365Z,22.60
2018-12-08T16:48:11.908Z,14.33
2018-12-08T16:50:41.037Z,15.13
2018-12-08T16:53:08.893Z,15.63
2018-12-08T16:55:36.400Z,22.50
2018-12-08T16:58:03.872Z,19.57
2018-12-08T17:00:31.341Z,18.90
2018-12-08T17:02:58.843Z,38.67
2018-12-08T17:05:26.486Z,33.40
2018-12-08T17:07:53.953Z,21.13
2018-12-08T17:10:21.585Z,18.43
2018-12-08T17:12:50.109Z,21.20
2018-12-08T17:15:17.740Z,24.90
2018-12-08T17:17:45.249Z,17.57
2018-12-08T17:20:12.742Z,17.13
2018-12-08T17:22:40.209Z,17.77
2018-12-08T17:25:07.731Z,17.77
2018-12-08T17:27:35.216Z,16.03
2018-12-08T17:30:02.700Z,17.47
2018-12-08T17:32:30.239Z,15.60
2018-12-08T17:34:57.745Z,14.93
2018-12-08T17:37:25.625Z,12.80
2018-12-08T17:39:53.337Z,11.37
2018-12-08T17:42:20.860Z,18.13
2018-12-08T17:44:48.382Z,13.53
2018-12-08T17:47:15.946Z,15.27
2018-12-08T17:49:43.534Z,13.53
2018-12-08T17:52:11.054Z,11.63
2018-12-08T17:54:38.617Z,11.27
2018-12-08T17:57:06.106Z,13.10
2018-12-08T17:59:33.599Z,16.00
2018-12-08T18:02:01.135Z,15.10
2018-12-08T18:04:28.671Z,12.93
2018-12-08T18:06:56.149Z,21.57
2018-12-08T18:09:23.848Z,11.77
2018-12-08T18:11:51.382Z,15.10
2018-12-08T18:14:18.886Z,15.77
2018-12-08T18:16:46.389Z,15.33
2018-12-08T18:19:13.864Z,16.77
2018-12-08T18:21:41.486Z,13.27
2018-12-08T18:24:09.081Z,16.93
2018-12-08T18:26:36.569Z,13.90
2018-12-08T18:29:04.054Z,12.37
2018-12-08T18:31:31.570Z,12.60
2018-12-08T18:33:59.061Z,14.83
2018-12-08T18:36:26.541Z,11.67
2018-12-08T18:38:54.157Z,16.43
2018-12-08T18:41:21.633Z,14.20
2018-12-08T18:43:49.118Z,12.73
2018-12-08T18:46:16.643Z,12.07
2018-12-08T18:48:44.231Z,14.87
2018-12-08T18:51:11.719Z,10.67
2018-12-08T18:53:39.233Z,13.03
2018-12-08T18:56:06.713Z,14.80
2018-12-08T18:58:34.193Z,15.83
2018-12-08T19:01:01.698Z,15.87
2018-12-08T19:03:33.467Z,14.93
2018-12-08T19:06:00.964Z,16.30
2018-12-08T19:08:28.475Z,15.70
2018-12-08T19:10:55.952Z,16.20
2018-12-08T19:13:23.449Z,12.07
2018-12-08T19:15:50.969Z,15.93
2018-12-08T19:18:18.458Z,13.80
2018-12-08T19:20:45.949Z,11.47
2018-12-08T19:23:13.477Z,13.97
2018-12-08T19:25:40.967Z,14.23
2018-12-08T19:28:08.458Z,14.57
2018-12-08T19:30:35.977Z,14.63
2018-12-08T19:33:03.458Z,14.20
2018-12-08T19:35:30.950Z,14.37
2018-12-08T19:37:58.465Z,16.47
2018-12-08T19:40:25.933Z,13.13
2018-12-08T19:42:53.422Z,16.53
2018-12-08T19:45:21.104Z,22.80
2018-12-08T19:47:48.644Z,15.67
2018-12-08T19:50:16.414Z,15.00
2018-12-08T19:52:43.934Z,15.33
2018-12-08T19:55:11.492Z,16.50
2018-12-08T19:57:38.982Z,15.07
2018-12-08T20:00:07.694Z,15.70
2018-12-08T20:02:35.201Z,14.63
2018-12-08T20:05:02.689Z,22.30
2018-12-08T20:07:30.204Z,27.60
2018-12-08T20:09:57.687Z,25.07
2018-12-08T20:12:25.162Z,26.07
2018-12-08T20:14:52.668Z,18.70
2018-12-08T20:17:20.182Z,16.80
2018-12-08T20:19:47.663Z,15.73
2018-12-08T20:22:15.162Z,14.70
2018-12-08T20:24:42.641Z,16.17
2018-12-08T20:27:10.263Z,17.80
2018-12-08T20:29:37.774Z,16.67
2018-12-08T20:32:05.253Z,12.20
2018-12-08T20:34:32.730Z,13.53
2018-12-08T20:37:00.241Z,14.27
2018-12-08T20:39:27.717Z,16.40
2018-12-08T20:41:55.185Z,15.23
2018-12-08T20:44:22.709Z,15.27
2018-12-08T20:46:50.189Z,16.30
2018-12-08T20:49:17.668Z,14.60
2018-12-08T20:51:45.213Z,18.77
2018-12-08T20:54:12.689Z,64.07
2018-12-08T20:56:40.166Z,83.23
2018-12-08T20:59:07.689Z,33.93
2018-12-08T21:01:35.168Z,20.77
2018-12-08T21:04:02.639Z,19.63
2018-12-08T21:06:30.137Z,18.00
2018-12-08T21:08:57.614Z,27.43
2018-12-08T21:11:25.996Z,28.20
2018-12-08T21:13:53.513Z,27.50
2018-12-08T21:16:20.993Z,19.37
2018-12-08T21:18:48.470Z,33.93
2018-12-08T21:21:16.033Z,29.00
2018-12-08T21:23:43.508Z,26.93
2018-12-08T21:26:10.983Z,29.53
2018-12-08T21:28:38.500Z,29.87
2018-12-08T21:31:05.974Z,21.57
2018-12-08T21:33:33.451Z,20.87
2018-12-08T21:36:00.949Z,22.57
2018-12-08T21:38:28.440Z,28.03
2018-12-08T21:40:55.917Z,32.57
2018-12-08T21:43:23.412Z,17.50
2018-12-08T21:45:50.892Z,18.67
2018-12-08T21:48:18.366Z,19.77
2018-12-08T21:50:45.922Z,22.10
2018-12-08T21:53:13.588Z,16.93
2018-12-08T21:55:41.064Z,19.93
2018-12-08T21:58:08.612Z,19.13
2018-12-08T22:00:36.081Z,14.30
2018-12-08T22:03:03.558Z,18.50
2018-12-08T22:05:31.077Z,16.27
2018-12-08T22:07:58.561Z,18.23
2018-12-08T22:10:26.038Z,15.77
2018-12-08T22:12:53.697Z,19.90
2018-12-08T22:15:21.569Z,16.63
2018-12-08T22:17:49.060Z,17.87
2018-12-08T22:20:16.562Z,18.13
2018-12-08T22:22:44.103Z,26.30
2018-12-08T22:25:11.578Z,16.30
2018-12-08T22:27:39.078Z,16.37
2018-12-08T22:30:06.574Z,14.37
2018-12-08T22:32:34.043Z,23.33
2018-12-08T22:35:01.553Z,25.47
2018-12-08T22:37:29.189Z,16.73
2018-12-08T22:39:57.017Z,14.50
2018-12-08T22:42:24.517Z,15.23
2018-12-08T22:44:51.994Z,16.90
2018-12-08T22:47:19.464Z,14.27
2018-12-08T22:49:46.958Z,15.30
2018-12-08T22:52:14.432Z,14.03
2018-12-08T22:54:41.974Z,20.03
2018-12-08T22:57:09.478Z,17.97
2018-12-08T22:59:37.219Z,13.23
2018-12-08T23:02:04.701Z,14.30
2018-12-08T23:04:32.213Z,18.00
2018-12-08T23:07:00.765Z,9.93
2018-12-08T23:09:28.236Z,11.27
2018-12-08T23:11:56.030Z,11.20
2018-12-08T23:14:23.507Z,15.10
2018-12-08T23:16:50.974Z,10.80
2018-12-08T23:19:18.525Z,9.47
2018-12-08T23:21:45.997Z,10.13
2018-12-08T23:24:13.468Z,12.10
2018-12-08T23:26:40.977Z,15.70
2018-12-08T23:29:08.446Z,13.20
2018-12-08T23:31:35.920Z,22.53
2018-12-08T23:34:03.422Z,35.20
2018-12-08T23:36:30.987Z,20.77
2018-12-08T23:38:58.494Z,30.43
2018-12-08T23:41:25.997Z,30.50
2018-12-08T23:43:53.477Z,29.47
2018-12-08T23:46:21.036Z,27.53
2018-12-08T23:48:48.533Z,20.07
2018-12-08T23:51:16.009Z,12.30
2018-12-08T23:53:43.504Z,18.83
2018-12-08T23:56:11.403Z,19.07
2018-12-08T23:58:38.870Z,9.27
